CheckWX is a tool to help pilots better visualize weather data.  It is not intended as a substitute for an official pre-flight weather briefing.

19:58:26 UTC

LQBK TAF
Banja Luka International Airport
Banja Luka, Bosnia and Herzegovina
TAF LQBK 251700Z 2518/2618 06005KT CAVOK TX31/2614Z TN17/2603Z PROB30 TEMPO 2518/2520 TSRA FEW030CB SCT040 PROB30 TEMPO 2601/2607 2000 BR BKN003

Jun-25@
18:00 UTC

Jun-25 @ 18:00 UTC

Jun-26@
18:00 UTC

Jun-26 @ 18:00 UTC

TAF LQBK 251700Z 2518/2618 06005KT CAVOK TX31/2614Z TN17/2603Z
Wind
  • 060° at 5 KTS
Cloud Levels
  • No significant clouds

Jun-25@
18:00 UTC

Jun-25 @ 18:00 UTC

Jun-25@
20:00 UTC

Jun-25 @ 20:00 UTC

PROB30 TEMPO 2518/2520 TSRA FEW030CB SCT040

Temporary - 30% Likelihood

Temporary - 30% Likelihood during this time.

Conditions
Thunderstorm, Rain
Cloud Levels
  • Few at 3,000' AGL
  • Scattered at 4,000' AGL

Jun-26@
01:00 UTC

Jun-26 @ 01:00 UTC

Jun-26@
07:00 UTC

Jun-26 @ 07:00 UTC

PROB30 TEMPO 2601/2607 2000 BR BKN003

Temporary - 30% Likelihood

Temporary - 30% Likelihood during this time.

Conditions
Mist
Cloud Levels
  • Broken at 300' AGL